createdAt,value
2018-04-23T00:00:07.364Z,59.51
2018-04-23T00:02:34.965Z,59.52
2018-04-23T00:05:02.600Z,59.56
2018-04-23T00:07:30.220Z,59.49
2018-04-23T00:09:57.859Z,59.21
2018-04-23T00:12:25.467Z,59.11
2018-04-23T00:14:53.131Z,59.06
2018-04-23T00:17:20.751Z,59.20
2018-04-23T00:19:48.460Z,59.36
2018-04-23T00:22:16.123Z,59.28
2018-04-23T00:24:43.747Z,59.30
2018-04-23T00:27:11.447Z,59.31
2018-04-23T00:29:39.087Z,59.19
2018-04-23T00:32:06.701Z,59.22
2018-04-23T00:34:34.331Z,59.35
2018-04-23T00:37:01.940Z,59.32
2018-04-23T00:39:29.583Z,59.48
2018-04-23T00:41:57.211Z,59.46
2018-04-23T00:44:24.842Z,59.42
2018-04-23T00:46:52.543Z,59.40
2018-04-23T00:49:20.188Z,59.41
2018-04-23T00:51:47.794Z,59.38
2018-04-23T00:54:15.432Z,59.37
2018-04-23T00:56:43.091Z,59.59
2018-04-23T00:59:10.751Z,59.65
2018-04-23T01:01:38.406Z,59.77
2018-04-23T01:04:06.075Z,59.79
2018-04-23T01:06:33.689Z,59.93
2018-04-23T01:09:01.317Z,60.08
2018-04-23T01:11:28.951Z,60.16
2018-04-23T01:13:56.563Z,60.21
2018-04-23T01:16:24.278Z,60.20
2018-04-23T01:18:51.891Z,60.16
2018-04-23T01:21:19.616Z,60.19
2018-04-23T01:23:47.222Z,60.14
2018-04-23T01:26:14.936Z,60.08
2018-04-23T01:28:42.594Z,60.09
2018-04-23T01:31:10.228Z,60.08
2018-04-23T01:33:37.923Z,60.11
2018-04-23T01:36:05.556Z,60.17
2018-04-23T01:38:33.162Z,60.24
2018-04-23T01:41:00.799Z,60.30
2018-04-23T01:43:28.402Z,60.57
2018-04-23T01:45:56.135Z,60.66
2018-04-23T01:48:23.738Z,60.75
2018-04-23T01:50:51.366Z,60.84
2018-04-23T01:53:19.019Z,60.98
2018-04-23T01:55:46.674Z,61.16
2018-04-23T01:58:14.281Z,61.21
2018-04-23T02:00:41.915Z,61.39
2018-04-23T02:03:09.524Z,61.70
2018-04-23T02:05:37.159Z,61.99
2018-04-23T02:08:04.782Z,61.96
2018-04-23T02:10:32.452Z,62.09
2018-04-23T02:13:00.067Z,62.02
2018-04-23T02:15:27.711Z,62.33
2018-04-23T02:17:55.345Z,62.28
2018-04-23T02:20:22.978Z,62.40
2018-04-23T02:22:50.588Z,62.50
2018-04-23T02:25:18.336Z,62.47
2018-04-23T02:27:45.979Z,62.55
2018-04-23T02:30:13.588Z,62.58
2018-04-23T02:32:41.313Z,62.72
2018-04-23T02:35:08.927Z,62.81
2018-04-23T02:37:36.569Z,62.86
2018-04-23T02:40:04.188Z,62.93
2018-04-23T02:42:31.859Z,62.93
2018-04-23T02:44:59.476Z,62.97
2018-04-23T02:47:27.118Z,63.05
2018-04-23T02:49:54.734Z,63.01
2018-04-23T02:52:22.377Z,63.04
2018-04-23T02:54:50.000Z,63.13
2018-04-23T02:57:17.636Z,63.17
2018-04-23T02:59:45.248Z,63.07
2018-04-23T03:02:12.951Z,63.07
2018-04-23T03:04:40.620Z,63.09
2018-04-23T03:07:08.258Z,63.09
2018-04-23T03:09:35.877Z,63.26
2018-04-23T03:12:03.607Z,63.09
2018-04-23T03:14:31.227Z,63.12
2018-04-23T03:16:58.854Z,63.02
2018-04-23T03:19:26.467Z,62.97
2018-04-23T03:21:54.146Z,63.06
2018-04-23T03:24:21.806Z,63.03
2018-04-23T03:26:49.474Z,63.04
2018-04-23T03:29:17.143Z,63.10
2018-04-23T03:31:44.806Z,63.21
2018-04-23T03:34:12.423Z,63.33
2018-04-23T03:36:40.068Z,63.29
2018-04-23T03:39:07.792Z,63.27
2018-04-23T03:41:35.450Z,63.30
2018-04-23T03:44:03.078Z,63.31
2018-04-23T03:46:30.770Z,63.36
2018-04-23T03:48:58.395Z,63.39
2018-04-23T03:51:26.520Z,63.36
2018-04-23T03:53:54.270Z,63.44
2018-04-23T03:56:21.883Z,63.58
2018-04-23T03:58:49.523Z,63.80
2018-04-23T04:01:17.168Z,64.04
2018-04-23T04:03:44.830Z,64.17
2018-04-23T04:06:12.451Z,64.19
2018-04-23T04:08:40.151Z,64.31
2018-04-23T04:11:07.805Z,64.37
2018-04-23T04:13:47.345Z,64.41
2018-04-23T04:16:26.808Z,64.46
2018-04-23T04:18:54.463Z,64.43
2018-04-23T04:21:22.110Z,64.52
2018-04-23T04:23:49.748Z,64.67
2018-04-23T04:26:17.362Z,64.69
2018-04-23T04:28:46.726Z,64.76
2018-04-23T04:31:14.343Z,64.96
2018-04-23T04:33:42.071Z,65.02
2018-04-23T04:36:09.699Z,65.12
2018-04-23T04:38:37.318Z,65.06
2018-04-23T04:41:04.960Z,65.07
2018-04-23T04:43:32.619Z,65.05
2018-04-23T04:46:00.278Z,65.12
2018-04-23T04:48:27.952Z,65.22
2018-04-23T04:50:55.602Z,65.35
2018-04-23T04:53:23.211Z,65.27
2018-04-23T04:55:50.931Z,65.04
2018-04-23T04:58:18.541Z,64.81
2018-04-23T05:00:46.184Z,64.50
2018-04-23T05:03:13.827Z,64.21
2018-04-23T05:05:41.469Z,64.02
2018-04-23T05:08:09.070Z,63.86
2018-04-23T05:10:36.796Z,63.59
2018-04-23T05:13:05.176Z,63.28
2018-04-23T05:15:32.811Z,62.94
2018-04-23T05:18:00.510Z,62.56
2018-04-23T05:20:28.137Z,62.28
2018-04-23T05:22:55.750Z,61.97
2018-04-23T05:25:23.373Z,61.65
2018-04-23T05:27:50.974Z,61.36
2018-04-23T05:30:18.710Z,61.22
2018-04-23T05:32:46.320Z,61.28
2018-04-23T05:35:13.954Z,61.31
2018-04-23T05:37:41.627Z,61.35
2018-04-23T05:40:09.363Z,61.33
2018-04-23T05:42:36.966Z,61.37
2018-04-23T05:45:04.650Z,61.48
2018-04-23T05:47:32.286Z,61.60
2018-04-23T05:49:59.900Z,61.69
2018-04-23T05:52:27.526Z,61.72
2018-04-23T05:54:55.136Z,61.94
2018-04-23T05:57:22.792Z,62.12
2018-04-23T05:59:50.402Z,62.29
2018-04-23T06:02:18.031Z,62.50
2018-04-23T06:04:45.718Z,62.67
2018-04-23T06:07:13.349Z,62.80
2018-04-23T06:09:41.003Z,62.85
2018-04-23T06:12:08.676Z,62.86
2018-04-23T06:14:36.443Z,62.87
2018-04-23T06:17:04.078Z,62.90
2018-04-23T06:19:31.767Z,62.67
2018-04-23T06:21:59.427Z,62.52
2018-04-23T06:24:27.080Z,62.23
2018-04-23T06:26:54.756Z,61.97
2018-04-23T06:29:22.371Z,61.74
2018-04-23T06:31:50.034Z,61.45
2018-04-23T06:34:17.643Z,61.28
2018-04-23T06:36:45.299Z,61.13
2018-04-23T06:39:12.910Z,60.97
2018-04-23T06:41:40.542Z,60.72
2018-04-23T06:44:08.184Z,60.60
2018-04-23T06:46:35.835Z,60.50
2018-04-23T06:49:03.448Z,60.41
2018-04-23T06:51:31.172Z,60.38
2018-04-23T06:53:58.791Z,60.26
2018-04-23T06:56:26.486Z,60.08
2018-04-23T06:58:54.164Z,59.94
2018-04-23T07:01:21.818Z,59.78
2018-04-23T07:03:49.446Z,59.65
2018-04-23T07:06:17.138Z,59.36
2018-04-23T07:08:44.812Z,59.20
2018-04-23T07:11:12.432Z,58.90
2018-04-23T07:13:40.094Z,58.71
2018-04-23T07:16:07.801Z,58.04
2018-04-23T07:18:35.450Z,57.97
2018-04-23T07:21:03.053Z,57.61
2018-04-23T07:23:30.784Z,57.41
2018-04-23T07:25:58.454Z,57.65
2018-04-23T07:28:26.099Z,57.53
2018-04-23T07:30:53.763Z,57.57
2018-04-23T07:33:21.434Z,57.68
2018-04-23T07:35:49.191Z,57.62
2018-04-23T07:38:16.853Z,57.73
2018-04-23T07:40:44.491Z,57.76
2018-04-23T07:43:12.137Z,57.68
2018-04-23T07:45:39.846Z,57.37
2018-04-23T07:48:07.479Z,57.31
2018-04-23T07:50:35.105Z,57.18
2018-04-23T07:53:02.738Z,56.37
2018-04-23T07:55:30.360Z,56.00
2018-04-23T07:57:58.011Z,55.90
2018-04-23T08:00:25.636Z,55.69
2018-04-23T08:02:53.388Z,55.44
2018-04-23T08:05:21.002Z,54.37
2018-04-23T08:07:48.644Z,54.33
2018-04-23T08:10:16.376Z,54.38
2018-04-23T08:12:44.040Z,54.03
2018-04-23T08:15:11.675Z,54.01
2018-04-23T08:17:39.300Z,54.13
2018-04-23T08:20:07.032Z,54.13
2018-04-23T08:22:34.650Z,54.23
2018-04-23T08:25:02.292Z,54.21
2018-04-23T08:27:29.910Z,54.41
2018-04-23T08:29:57.552Z,54.22
2018-04-23T08:32:25.165Z,54.11
2018-04-23T08:34:52.795Z,54.07
2018-04-23T08:37:20.411Z,54.20
2018-04-23T08:39:48.123Z,54.07
2018-04-23T08:42:15.787Z,53.40
2018-04-23T08:44:43.436Z,53.33
2018-04-23T08:47:11.046Z,53.02
2018-04-23T08:49:38.682Z,52.66
2018-04-23T08:52:06.299Z,52.64
2018-04-23T08:54:33.934Z,52.33
2018-04-23T08:57:01.659Z,52.26
2018-04-23T08:59:29.298Z,51.58
2018-04-23T09:01:56.984Z,51.67
2018-04-23T09:04:24.647Z,52.01
2018-04-23T09:06:52.262Z,50.83
2018-04-23T09:09:19.971Z,50.60
2018-04-23T09:11:47.665Z,50.44
2018-04-23T09:14:15.303Z,50.30
2018-04-23T09:16:42.913Z,49.90
2018-04-23T09:19:10.560Z,49.78
2018-04-23T09:21:38.174Z,49.93
2018-04-23T09:24:05.806Z,50.06
2018-04-23T09:26:33.447Z,50.45
2018-04-23T09:29:01.062Z,49.94
2018-04-23T09:31:28.724Z,49.85
2018-04-23T09:33:56.335Z,49.73
2018-04-23T09:36:24.046Z,49.96
2018-04-23T09:38:51.710Z,49.76
2018-04-23T09:41:19.380Z,50.05
2018-04-23T09:43:47.035Z,50.04
2018-04-23T09:46:14.673Z,50.45
2018-04-23T09:48:42.358Z,50.27
2018-04-23T09:51:10.019Z,49.59
2018-04-23T09:53:37.682Z,49.54
2018-04-23T09:56:05.311Z,49.60
2018-04-23T09:58:32.931Z,49.58
2018-04-23T10:01:00.576Z,49.50
2018-04-23T10:03:43.995Z,48.24
2018-04-23T10:06:16.578Z,48.46
2018-04-23T10:08:44.199Z,47.25
2018-04-23T10:11:11.843Z,46.88
2018-04-23T10:13:39.576Z,46.59
2018-04-23T10:16:07.226Z,46.93
2018-04-23T10:18:34.839Z,47.12
2018-04-23T10:21:02.520Z,47.16
2018-04-23T10:23:30.118Z,47.25
2018-04-23T10:25:57.796Z,47.17
2018-04-23T10:28:25.448Z,47.67
2018-04-23T10:30:53.096Z,46.87
2018-04-23T10:33:20.761Z,45.96
2018-04-23T10:35:48.430Z,45.90
2018-04-23T10:38:16.048Z,46.42
2018-04-23T10:40:43.747Z,46.99
2018-04-23T10:43:11.353Z,46.92
2018-04-23T10:45:38.987Z,46.74
2018-04-23T10:48:06.650Z,47.29
2018-04-23T10:50:34.265Z,47.28
2018-04-23T10:53:01.920Z,46.52
2018-04-23T10:55:29.531Z,46.19
2018-04-23T10:57:57.191Z,45.63
2018-04-23T11:00:24.812Z,45.86
2018-04-23T11:02:52.520Z,46.09
2018-04-23T11:05:20.139Z,45.39
2018-04-23T11:07:47.796Z,45.77
2018-04-23T11:10:15.493Z,45.52
2018-04-23T11:12:43.156Z,45.83
2018-04-23T11:15:10.779Z,45.16
2018-04-23T11:17:38.418Z,45.49
2018-04-23T11:20:06.052Z,45.30
2018-04-23T11:22:33.697Z,45.24
2018-04-23T11:25:01.306Z,45.15
2018-04-23T11:27:28.951Z,44.81
2018-04-23T11:29:56.572Z,44.50
2018-04-23T11:32:24.272Z,44.32
2018-04-23T11:34:51.927Z,44.12
2018-04-23T11:37:19.563Z,44.26
2018-04-23T11:39:47.239Z,44.04
2018-04-23T11:42:14.900Z,44.68
2018-04-23T11:44:42.576Z,44.84
2018-04-23T11:47:10.211Z,44.72
2018-04-23T11:49:37.826Z,44.31
2018-04-23T11:52:05.551Z,44.59
2018-04-23T11:54:33.231Z,44.72
2018-04-23T11:57:00.978Z,44.99
2018-04-23T11:59:28.651Z,44.54
2018-04-23T12:01:56.290Z,43.29
2018-04-23T12:04:23.947Z,42.50
2018-04-23T12:06:51.546Z,42.06
2018-04-23T12:09:19.290Z,41.98
2018-04-23T12:11:46.958Z,42.26
2018-04-23T12:14:14.723Z,42.75
2018-04-23T12:16:42.370Z,42.65
2018-04-23T12:19:10.043Z,42.75
2018-04-23T12:21:37.737Z,43.15
2018-04-23T12:24:05.369Z,43.54
2018-04-23T12:26:32.992Z,43.12
2018-04-23T12:29:00.704Z,43.26
2018-04-23T12:31:28.375Z,42.29
2018-04-23T12:33:56.094Z,42.96
2018-04-23T12:36:23.799Z,42.54
2018-04-23T12:38:51.449Z,41.83
2018-04-23T12:41:19.058Z,41.94
2018-04-23T12:43:46.774Z,42.78
2018-04-23T12:46:14.483Z,44.73
2018-04-23T12:48:42.120Z,45.86
2018-04-23T12:51:09.757Z,46.62
2018-04-23T12:53:37.426Z,47.54
2018-04-23T12:56:05.048Z,47.56
2018-04-23T12:58:32.691Z,47.97
2018-04-23T13:01:00.409Z,48.00
2018-04-23T13:03:28.038Z,48.10
2018-04-23T13:05:55.738Z,48.51
2018-04-23T13:08:23.374Z,48.37
2018-04-23T13:10:50.994Z,47.99
2018-04-23T13:13:18.635Z,47.49
2018-04-23T13:15:46.296Z,47.00
2018-04-23T13:18:13.942Z,46.92
2018-04-23T13:20:41.914Z,46.62
2018-04-23T13:23:09.556Z,46.42
2018-04-23T13:25:37.187Z,45.91
2018-04-23T13:28:04.916Z,45.41
2018-04-23T13:30:32.581Z,45.58
2018-04-23T13:33:00.194Z,45.65
2018-04-23T13:35:27.900Z,45.12
2018-04-23T13:37:55.514Z,45.32
2018-04-23T13:40:23.147Z,44.77
2018-04-23T13:42:50.759Z,43.75
2018-04-23T13:45:18.455Z,44.42
2018-04-23T13:47:46.070Z,45.04
2018-04-23T13:50:13.767Z,45.36
2018-04-23T13:52:41.366Z,44.95
2018-04-23T13:55:09.007Z,44.64
2018-04-23T13:57:36.649Z,44.68
2018-04-23T14:00:04.287Z,44.11
2018-04-23T14:02:31.898Z,43.49
2018-04-23T14:04:59.535Z,42.94
2018-04-23T14:07:27.149Z,43.10
2018-04-23T14:09:54.794Z,43.14
2018-04-23T14:12:22.403Z,43.28
2018-04-23T14:14:50.081Z,43.07
2018-04-23T14:17:17.740Z,43.32
2018-04-23T14:19:45.369Z,43.45
2018-04-23T14:22:12.988Z,43.65
2018-04-23T14:24:40.829Z,43.48
2018-04-23T14:27:08.494Z,42.93
2018-04-23T14:29:36.139Z,42.94
2018-04-23T14:32:03.760Z,42.60
2018-04-23T14:34:31.407Z,42.95
2018-04-23T14:36:59.028Z,43.14
2018-04-23T14:39:26.671Z,43.06
2018-04-23T14:41:54.278Z,43.61
2018-04-23T14:44:22.032Z,43.94
2018-04-23T14:46:49.698Z,44.07
2018-04-23T14:49:17.359Z,43.41
2018-04-23T14:51:44.979Z,43.85
2018-04-23T14:54:12.610Z,43.41
2018-04-23T14:56:40.222Z,43.35
2018-04-23T14:59:07.902Z,43.59
2018-04-23T15:01:35.571Z,43.77
2018-04-23T15:04:03.192Z,43.57
2018-04-23T15:06:30.835Z,43.98
2018-04-23T15:08:58.464Z,43.99
2018-04-23T15:11:26.109Z,43.69
2018-04-23T15:13:53.784Z,43.69
2018-04-23T15:16:21.534Z,43.07
2018-04-23T15:18:49.162Z,42.28
2018-04-23T15:21:16.875Z,42.45
2018-04-23T15:23:44.496Z,42.26
2018-04-23T15:26:12.186Z,42.42
2018-04-23T15:28:39.803Z,42.89
2018-04-23T15:31:07.524Z,43.86
2018-04-23T15:33:35.178Z,44.19
2018-04-23T15:36:02.840Z,44.66
2018-04-23T15:38:30.504Z,44.00
2018-04-23T15:40:58.176Z,43.87
2018-04-23T15:43:25.827Z,43.91
2018-04-23T15:45:53.458Z,44.27
2018-04-23T15:48:21.079Z,44.52
2018-04-23T15:50:48.911Z,43.75
2018-04-23T15:53:16.578Z,43.35
2018-04-23T15:55:44.223Z,43.24
2018-04-23T15:58:11.839Z,43.18
2018-04-23T16:00:39.474Z,43.37
2018-04-23T16:03:07.096Z,43.05
2018-04-23T16:05:34.740Z,43.04
2018-04-23T16:08:02.451Z,43.08
2018-04-23T16:10:30.110Z,42.97
2018-04-23T16:12:57.718Z,39.63
2018-04-23T16:15:25.360Z,38.90
2018-04-23T16:17:53.009Z,38.69
2018-04-23T16:20:20.667Z,39.24
2018-04-23T16:22:48.322Z,39.83
2018-04-23T16:25:15.957Z,41.05
2018-04-23T16:27:43.570Z,42.12
2018-04-23T16:30:11.202Z,42.81
2018-04-23T16:32:38.877Z,43.35
2018-04-23T16:35:06.530Z,43.53
2018-04-23T16:37:34.255Z,43.26
2018-04-23T16:40:01.970Z,42.58
2018-04-23T16:42:29.591Z,41.59
2018-04-23T16:44:57.295Z,40.50
2018-04-23T16:47:24.959Z,40.62
2018-04-23T16:49:52.576Z,40.49
2018-04-23T16:52:20.229Z,40.91
2018-04-23T16:54:47.888Z,40.82
2018-04-23T16:57:15.592Z,40.94
2018-04-23T16:59:43.255Z,40.88
2018-04-23T17:02:10.918Z,40.49
2018-04-23T17:04:38.591Z,40.53
2018-04-23T17:07:06.264Z,41.01
2018-04-23T17:09:33.880Z,41.19
2018-04-23T17:12:01.571Z,41.68
2018-04-23T17:14:29.231Z,42.27
2018-04-23T17:16:56.867Z,42.40
2018-04-23T17:19:24.563Z,42.56
2018-04-23T17:21:52.227Z,42.92
2018-04-23T17:24:19.882Z,43.03
2018-04-23T17:26:47.546Z,43.11
2018-04-23T17:29:15.159Z,43.34
2018-04-23T17:31:42.789Z,43.45
2018-04-23T17:34:10.394Z,43.79
2018-04-23T17:36:38.028Z,43.91
2018-04-23T17:39:06.396Z,43.90
2018-04-23T17:41:34.132Z,43.83
2018-04-23T17:44:01.784Z,43.85
2018-04-23T17:46:29.420Z,43.73
2018-04-23T17:48:57.035Z,43.32
2018-04-23T17:51:24.696Z,43.25
2018-04-23T17:53:52.301Z,43.38
2018-04-23T17:56:19.937Z,43.38
2018-04-23T17:58:47.625Z,43.70
2018-04-23T18:01:15.263Z,43.91
2018-04-23T18:03:42.995Z,44.12
2018-04-23T18:06:10.657Z,44.51
2018-04-23T18:08:38.257Z,44.54
2018-04-23T18:11:06.011Z,44.76
2018-04-23T18:13:33.642Z,44.95
2018-04-23T18:16:01.315Z,45.16
2018-04-23T18:18:28.956Z,45.17
2018-04-23T18:20:56.641Z,45.50
2018-04-23T18:23:24.294Z,45.82
2018-04-23T18:25:51.898Z,45.94
2018-04-23T18:28:19.531Z,46.15
2018-04-23T18:30:47.178Z,46.38
2018-04-23T18:33:14.812Z,46.67
2018-04-23T18:35:42.510Z,46.96
2018-04-23T18:38:10.138Z,47.26
2018-04-23T18:40:37.830Z,47.56
2018-04-23T18:43:05.607Z,47.82
2018-04-23T18:45:33.210Z,47.89
2018-04-23T18:48:00.838Z,47.72
2018-04-23T18:50:28.478Z,47.82
2018-04-23T18:52:56.119Z,47.72
2018-04-23T18:55:23.802Z,47.96
2018-04-23T18:57:51.439Z,47.86
2018-04-23T19:00:19.126Z,47.71
2018-04-23T19:02:46.764Z,47.62
2018-04-23T19:05:14.378Z,47.80
2018-04-23T19:07:42.127Z,47.69
2018-04-23T19:10:09.739Z,47.73
2018-04-23T19:12:37.442Z,47.84
2018-04-23T19:15:05.113Z,47.75
2018-04-23T19:17:32.775Z,47.75
2018-04-23T19:20:00.378Z,47.82
2018-04-23T19:22:28.002Z,47.83
2018-04-23T19:24:55.650Z,47.93
2018-04-23T19:27:23.334Z,48.12
2018-04-23T19:29:50.951Z,48.25
2018-04-23T19:32:18.638Z,48.29
2018-04-23T19:34:46.307Z,48.34
2018-04-23T19:37:13.919Z,48.33
2018-04-23T19:39:41.548Z,48.41
2018-04-23T19:42:09.186Z,48.42
2018-04-23T19:44:36.830Z,48.84
2018-04-23T19:47:04.517Z,48.55
2018-04-23T19:49:32.130Z,48.58
2018-04-23T19:51:59.950Z,48.69
2018-04-23T19:54:27.608Z,48.79
2018-04-23T19:56:55.219Z,49.02
2018-04-23T19:59:22.863Z,49.07
2018-04-23T20:01:50.486Z,49.10
2018-04-23T20:04:18.119Z,49.25
2018-04-23T20:06:45.833Z,49.28
2018-04-23T20:09:13.466Z,49.37
2018-04-23T20:11:41.075Z,49.40
2018-04-23T20:14:08.707Z,49.50
2018-04-23T20:16:36.329Z,49.48
2018-04-23T20:19:03.964Z,49.59
2018-04-23T20:21:31.682Z,49.49
2018-04-23T20:23:59.320Z,49.55
2018-04-23T20:26:27.005Z,49.75
2018-04-23T20:28:54.630Z,50.00
2018-04-23T20:31:22.330Z,50.26
2018-04-23T20:33:49.983Z,50.37
2018-04-23T20:36:17.659Z,50.50
2018-04-23T20:38:45.317Z,50.54
2018-04-23T20:41:12.988Z,50.73
2018-04-23T20:43:41.250Z,50.89
2018-04-23T20:46:08.886Z,51.16
2018-04-23T20:48:36.487Z,51.30
2018-04-23T20:51:04.145Z,51.43
2018-04-23T20:53:31.769Z,51.48
2018-04-23T20:55:59.398Z,51.66
2018-04-23T20:58:27.008Z,51.91
2018-04-23T21:00:54.684Z,52.08
2018-04-23T21:03:22.267Z,52.31
2018-04-23T21:05:49.905Z,52.63
2018-04-23T21:08:17.520Z,52.85
2018-04-23T21:10:45.344Z,53.22
2018-04-23T21:13:13.011Z,53.50
2018-04-23T21:15:40.640Z,53.57
2018-04-23T21:18:08.330Z,53.71
2018-04-23T21:20:35.965Z,53.78
2018-04-23T21:23:03.566Z,53.75
2018-04-23T21:25:31.215Z,53.79
2018-04-23T21:27:58.836Z,53.87
2018-04-23T21:30:26.471Z,54.03
2018-04-23T21:32:54.069Z,54.22
2018-04-23T21:35:21.699Z,54.47
2018-04-23T21:37:49.306Z,54.66
2018-04-23T21:40:16.941Z,54.87
2018-04-23T21:42:44.543Z,54.87
2018-04-23T21:45:12.181Z,54.95
2018-04-23T21:47:39.792Z,55.02
2018-04-23T21:50:07.422Z,55.09
2018-04-23T21:52:35.039Z,55.32
2018-04-23T21:55:02.691Z,55.33
2018-04-23T21:57:30.314Z,55.21
2018-04-23T21:59:57.977Z,55.27
2018-04-23T22:02:25.603Z,55.29
2018-04-23T22:04:53.559Z,55.35
2018-04-23T22:07:21.279Z,55.38
2018-04-23T22:09:48.943Z,55.47
2018-04-23T22:12:16.584Z,55.46
2018-04-23T22:14:44.190Z,55.46
2018-04-23T22:17:11.817Z,55.62
2018-04-23T22:19:39.428Z,55.70
2018-04-23T22:22:07.146Z,55.81
2018-04-23T22:24:34.820Z,55.79
2018-04-23T22:27:02.479Z,55.85
2018-04-23T22:29:30.144Z,55.87
2018-04-23T22:31:57.771Z,55.87
2018-04-23T22:34:25.383Z,55.96
2018-04-23T22:36:53.014Z,55.78
2018-04-23T22:39:20.688Z,55.81
2018-04-23T22:41:48.342Z,55.92
2018-04-23T22:44:15.956Z,55.88
2018-04-23T22:46:43.588Z,56.04
2018-04-23T22:49:11.190Z,56.00
2018-04-23T22:51:38.890Z,56.14
2018-04-23T22:54:06.554Z,56.28
2018-04-23T22:56:34.192Z,56.36
2018-04-23T22:59:01.810Z,56.45
2018-04-23T23:01:29.538Z,56.60
2018-04-23T23:03:57.147Z,56.69
2018-04-23T23:06:24.861Z,56.72
2018-04-23T23:08:52.523Z,56.71
2018-04-23T23:11:20.124Z,56.80
2018-04-23T23:13:47.849Z,56.95
2018-04-23T23:16:15.458Z,57.15
2018-04-23T23:18:43.095Z,57.27
2018-04-23T23:21:10.714Z,57.37
2018-04-23T23:23:38.404Z,57.61
2018-04-23T23:26:06.011Z,57.83
2018-04-23T23:28:33.643Z,58.10
2018-04-23T23:31:01.260Z,58.44
2018-04-23T23:33:28.946Z,58.71
2018-04-23T23:35:56.619Z,58.92
2018-04-23T23:38:24.259Z,59.11
2018-04-23T23:40:51.872Z,59.40
2018-04-23T23:43:19.503Z,59.66
2018-04-23T23:45:47.105Z,59.86
2018-04-23T23:48:14.730Z,60.19
2018-04-23T23:50:42.329Z,60.35
2018-04-23T23:53:10.043Z,60.65
2018-04-23T23:55:37.715Z,60.87
2018-04-23T23:58:05.342Z,61.12
